Lima, OH (45807)

1:14 AM EDT on July 08, 2015 (GMT -0400)
West side Lima OH | | Change Station
CLOSE
Current Station
Personal Weather Station
Location: Lima, OH
Elevation: 870 ft
Nearby Weather Stations

Elev 870 ft 40.75 °N, 84.13 °W | Updated 3 minutes ago

Overcast
Overcast
66.0 °F
Feels Like 66.0 °F
N
0.0
Wind Variable Wind from ENE
Gusts 0.0 mph

Today
High -- | Low -- °F
--% Chance of Precip.
Yesterday
High -- | Low -- °F
Precip. -- in
6:12 AM 9:10 PM
Waning Gibbous, 57% visible
Pressure 30.02 in
Visibility 5.0 miles
Clouds Scattered Clouds 700 ft
Overcast 1500 ft
Dew Point 65 °F
Humidity 97%
Rainfall 0.00 in
Snow Depth Not available.
UV 0 out of 12
Pollen .50 out of 12
Air Quality Not available.
Flu Activity Not available.
METAR KAOH 080453Z AUTO 02008KT 5SM BR SCT007 OVC015 17/16 A3004 RMK AO2 SLP165 T01720161 402670172

More Conditions Fewer Conditions

Pressure 30.02 in
Visibility 5.0 miles
Clouds Scattered Clouds 700 ft
Overcast 1500 ft
Dew Point 65 °F
Humidity 97%
Rainfall 0.00 in
Snow Depth Not available.
UV 0 out of 12
Pollen .50 out of 12
Air Quality Not available.
Flu Activity Not available.
METAR KAOH 080453Z AUTO 02008KT 5SM BR SCT007 OVC015 17/16 A3004 RMK AO2 SLP165 T01720161 402670172

More Conditions Fewer Conditions

10-Day Weather Forecast

×

Almanac

Astronomy

Jul. 08, 2015 Rise Set
Actual Time
Civil Twilight
Nautical Twilight
Astronomical Twilight
Moon
Length of Visible Light
Length of Day
Tomorrow will be .
, % of the Moon is Illuminated

Today's Extremes

State Highs State Lows

Community

WunderPhotos

Upload Photos

1,836,057 photos uploaded!

WunderBlogs® & News

Nearby

Air Quality

  Air Quality AQ Index Pollutant
Not available.

Snow Depth

Station Depth Elevation

Earthquake Activity

City Distance Mag. Time & Date
Minimum magnitude displayed is 2.5.

Coastal Water Temperatures

Place Temperature

Stations

Nearby Weather Stations

Station Location Temp. Windchill Dew Point Humidity Wind Precip. Elev Updated Type